Time;durP1;ratioP1;P1;durP2;ratioP2;P2;SDS_P1;SDS_P2;PMS_P1;PMS_P2;Temp;Humidity;BMP_temperature;BMP_pressure;BME280_temperature;BME280_humidity;BME280_pressure;Samples;Min_cycle;Max_cycle;Signal;HPM_P1;HPM_P2
2022/02/08 00:01:23;;;;;;;46.50;4.90;;;;;;;7.59;95.08;102435.19;5025776;28;20029;-46
2022/02/08 00:03:49;;;;;;;48.45;4.18;;;;;;;7.59;94.96;102437.88;5015224;28;20138;-45
2022/02/08 00:08:59;;;;;;;51.33;4.65;;;;;;;7.66;95.52;102440.88;5018448;28;20041;-45
2022/02/08 00:11:25;;;;;;;53.83;7.88;;;;;;;7.70;95.59;102435.16;5014638;28;20029;-44
2022/02/08 00:13:50;;;;;;;49.75;4.72;;;;;;;7.73;95.45;102443.94;5018284;28;20033;-47
2022/02/08 00:16:15;;;;;;;47.90;4.95;;;;;;;7.75;95.63;102442.00;5022569;28;20129;-45
2022/02/08 00:18:41;;;;;;;30.90;3.70;;;;;;;7.76;96.04;102443.69;5018403;28;20027;-46
2022/02/08 00:21:06;;;;;;;44.40;4.10;;;;;;;7.75;96.06;102442.84;5017175;28;20066;-45
2022/02/08 00:23:32;;;;;;;50.70;4.22;;;;;;;7.74;96.36;102445.63;5017998;28;20030;-46
2022/02/08 00:25:57;;;;;;;48.63;4.97;;;;;;;7.75;96.32;102442.84;5019004;28;20030;-48
2022/02/08 00:28:22;;;;;;;47.00;4.63;;;;;;;7.76;96.49;102438.31;5030946;28;20021;-47
2022/02/08 00:30:48;;;;;;;44.75;4.68;;;;;;;7.77;96.69;102435.53;5016951;28;20068;-46
2022/02/08 00:33:13;;;;;;;42.70;4.43;;;;;;;7.79;96.74;102444.28;5023097;28;20037;-46
2022/02/08 00:35:38;;;;;;;46.45;5.43;;;;;;;7.83;96.82;102442.22;5015861;28;20033;-46
2022/02/08 00:38:03;;;;;;;33.33;4.60;;;;;;;7.86;96.71;102433.91;5028694;28;20029;-45
2022/02/08 00:40:29;;;;;;;45.28;5.25;;;;;;;7.90;96.54;102446.13;5017662;28;20029;-46
2022/02/08 00:42:55;;;;;;;58.58;5.18;;;;;;;7.94;96.52;102439.50;5027701;28;20108;-45
2022/02/08 00:45:30;;;;;;;33.33;4.40;;;;;;;7.97;96.59;102433.88;5030933;28;20030;-46
2022/02/08 00:48:08;;;;;;;28.98;4.07;;;;;;;8.02;96.76;102436.19;5024014;28;20072;-44
2022/02/08 00:50:33;;;;;;;31.77;4.05;;;;;;;8.04;96.42;102443.13;5018762;28;20036;-44
2022/02/08 00:52:59;;;;;;;35.88;3.72;;;;;;;8.07;96.48;102434.00;5025420;28;20030;-45
2022/02/08 00:55:24;;;;;;;39.58;4.13;;;;;;;8.09;96.24;102437.41;5014432;28;20026;-44
2022/02/08 00:57:49;;;;;;;24.70;4.15;;;;;;;8.08;96.62;102431.19;5018369;28;20029;-45
2022/02/08 01:00:15;;;;;;;47.80;6.50;;;;;;;8.10;96.47;102441.78;5016148;28;20029;-45
2022/02/08 01:02:42;;;;;;;45.25;5.30;;;;;;;8.09;96.83;102426.69;5013096;28;20037;-44
2022/02/08 01:05:11;;;;;;;35.92;4.40;;;;;;;8.10;96.58;102414.97;5029368;28;20065;-45
2022/02/08 01:07:36;;;;;;;45.97;5.30;;;;;;;8.09;96.95;102438.25;5028429;28;20121;-45
2022/02/08 01:10:03;;;;;;;45.58;5.60;;;;;;;8.07;96.77;102434.84;5029000;28;20116;-47
2022/02/08 01:12:32;;;;;;;45.83;4.88;;;;;;;8.07;97.12;102437.50;5021105;28;20030;-45
2022/02/08 01:14:58;;;;;;;40.10;4.55;;;;;;;8.09;97.21;102432.03;5029827;28;20029;-46
2022/02/08 01:17:25;;;;;;;37.40;4.22;;;;;;;8.06;97.48;102425.09;5028142;28;20111;-45
2022/02/08 01:19:57;;;;;;;30.95;4.65;;;;;;;8.07;97.59;102425.94;5031871;28;20461;-45
2022/02/08 01:22:22;;;;;;;48.45;5.00;;;;;;;8.06;97.48;102430.47;5014940;28;20021;-45
2022/02/08 01:24:48;;;;;;;31.15;4.18;;;;;;;8.07;97.45;102432.16;5050878;28;20074;-46
2022/02/08 01:27:15;;;;;;;37.67;5.00;;;;;;;8.07;97.88;102421.44;5017576;28;20030;-46
2022/02/08 01:29:54;;;;;;;42.65;4.93;;;;;;;8.07;97.64;102420.59;5027023;28;20030;-44
2022/02/08 01:50:26;;;;;;;44.00;5.55;;;;;;;8.11;98.32;102433.63;5030115;28;20115;-45
2022/02/08 01:52:52;;;;;;;44.38;6.05;;;;;;;8.13;98.57;102431.63;5025610;28;20030;-44
2022/02/08 01:55:17;;;;;;;40.92;5.82;;;;;;;8.17;98.45;102447.50;5012853;28;20033;-46
2022/02/08 01:57:44;;;;;;;39.55;7.00;;;;;;;8.19;98.22;102442.84;5029404;28;20382;-45
2022/02/08 02:00:11;;;;;;;40.95;5.72;;;;;;;8.21;98.23;102439.06;5032299;28;20335;-46
2022/02/08 02:02:36;;;;;;;42.20;6.47;;;;;;;8.23;98.20;102445.16;5016037;28;20117;-44
2022/02/08 02:05:03;;;;;;;56.22;6.20;;;;;;;8.23;98.29;102437.09;5029787;28;20061;-46
2022/02/08 02:07:28;;;;;;;32.80;5.20;;;;;;;8.24;98.15;102437.94;5021254;28;20053;-47
2022/02/08 02:09:53;;;;;;;37.78;5.22;;;;;;;8.26;98.11;102441.34;5025339;28;20041;-46
2022/02/08 02:12:19;;;;;;;55.30;6.25;;;;;;;8.28;98.08;102445.63;5031827;28;20026;-45
2022/02/08 02:14:45;;;;;;;32.53;5.65;;;;;;;8.28;97.89;102444.78;5014767;28;20170;-45
2022/02/08 02:17:11;;;;;;;41.40;4.85;;;;;;;8.28;97.58;102439.41;5025056;28;20049;-47
2022/02/08 02:19:37;;;;;;;33.00;4.68;;;;;;;8.32;97.45;102443.53;5019202;28;20110;-46
2022/02/08 02:22:04;;;;;;;41.50;6.05;;;;;;;8.33;97.39;102442.56;5023314;28;20040;-45
2022/02/08 02:24:29;;;;;;;33.08;4.70;;;;;;;8.32;97.27;102430.09;5017367;28;20032;-46
2022/02/08 02:26:59;;;;;;;35.63;4.97;;;;;;;8.31;97.33;102439.16;5020227;28;20026;-47
2022/02/08 02:29:25;;;;;;;44.17;5.90;;;;;;;8.30;96.91;102438.31;5017770;28;20026;-46
2022/02/08 02:31:51;;;;;;;37.10;4.47;;;;;;;8.31;97.11;102436.47;5017291;28;20030;-46
2022/02/08 02:34:18;;;;;;;40.90;4.63;;;;;;;8.32;97.21;102446.19;5030432;28;20052;-46
2022/02/08 02:36:44;;;;;;;29.38;5.05;;;;;;;8.31;97.20;102447.19;5034868;28;20087;-47
2022/02/08 02:39:10;;;;;;;35.22;4.88;;;;;;;8.29;97.24;102444.66;5035598;28;20029;-47
2022/02/08 02:41:44;;;;;;;44.13;5.32;;;;;;;8.31;97.02;102449.88;5040741;28;20453;-45
2022/02/08 02:44:12;;;;;;;32.45;4.60;;;;;;;8.34;97.31;102438.88;5055791;28;20032;-45
2022/02/08 02:46:38;;;;;;;34.33;4.67;;;;;;;8.36;96.80;102436.94;5034172;28;20052;-45
2022/02/08 02:49:04;;;;;;;37.42;4.30;;;;;;;8.36;96.94;102447.66;5033559;28;20076;-47
2022/02/08 02:51:30;;;;;;;42.05;4.97;;;;;;;8.38;96.66;102444.88;5024818;28;20022;-46
2022/02/08 02:53:55;;;;;;;32.60;3.78;;;;;;;8.37;96.37;102441.31;5022502;28;20037;-46
2022/02/08 02:56:21;;;;;;;27.20;4.00;;;;;;;8.40;96.10;102432.19;5032305;28;20026;-45
2022/02/08 02:58:47;;;;;;;30.23;3.95;;;;;;;8.39;96.14;102442.06;5035414;28;20033;-46
2022/02/08 03:19:54;;;;;;;25.23;3.67;;;;;;;8.44;95.06;102437.16;5032272;28;20048;-45
2022/02/08 03:22:20;;;;;;;32.78;3.88;;;;;;;8.45;95.00;102438.88;5020295;28;20037;-46
2022/02/08 03:24:45;;;;;;;25.40;3.47;;;;;;;8.46;94.92;102424.47;5035158;28;20029;-47
2022/02/08 03:27:10;;;;;;;17.13;2.95;;;;;;;8.48;94.00;102440.47;5023744;28;20125;-45
2022/02/08 03:29:36;;;;;;;29.52;3.35;;;;;;;8.49;93.71;102432.28;5016472;28;20108;-46
2022/02/08 03:32:01;;;;;;;31.15;3.15;;;;;;;8.48;93.50;102435.09;5028297;28;20032;-46
2022/02/08 03:34:27;;;;;;;26.85;3.33;;;;;;;8.50;93.02;102433.97;5022920;28;20036;-48
2022/02/08 03:36:52;;;;;;;23.15;3.70;;;;;;;8.50;93.33;102433.97;5018473;28;20112;-47
2022/02/08 03:39:23;;;;;;;22.02;2.70;;;;;;;8.52;92.43;102442.75;5029783;28;20060;-47
2022/02/08 03:41:53;;;;;;;25.20;3.28;;;;;;;8.53;91.57;102439.09;5024906;28;20042;-46
2022/02/08 03:44:22;;;;;;;30.55;3.65;;;;;;;8.56;91.09;102452.25;5031951;28;20045;-48
2022/02/08 03:46:48;;;;;;;25.02;3.05;;;;;;;8.59;90.64;102458.34;5024949;28;20090;-46
2022/02/08 03:49:14;;;;;;;25.80;2.60;;;;;;;8.60;90.07;102442.09;5033398;28;20041;-45
2022/02/08 03:51:53;;;;;;;27.40;3.28;;;;;;;8.61;89.96;102446.50;5025075;28;20025;-47
2022/02/08 03:54:19;;;;;;;22.35;3.25;;;;;;;8.61;90.19;102445.63;5016114;28;20142;-46
2022/02/08 03:56:45;;;;;;;26.27;2.80;;;;;;;8.64;89.33;102453.44;5018709;28;20177;-46
2022/02/08 03:59:15;;;;;;;29.02;2.90;;;;;;;8.65;89.12;102452.44;5021347;28;20041;-45
2022/02/08 04:06:57;;;;;;;28.40;2.83;;;;;;;8.66;88.69;102464.88;5014672;28;20509;-45
2022/02/08 04:09:23;;;;;;;25.83;3.65;;;;;;;8.64;88.92;102461.50;5014607;28;20025;-45
2022/02/08 04:12:05;;;;;;;27.77;3.13;;;;;;;8.65;88.87;102458.66;5031516;28;20512;-47
2022/02/08 04:41:29;;;;;;;33.50;3.47;;;;;;;8.68;88.73;102462.91;5021885;28;20050;-46
2022/02/08 04:44:10;;;;;;;20.67;2.67;;;;;;;8.70;88.50;102451.06;5014939;28;20050;-45
2022/02/08 04:49:03;;;;;;;;;;;;;;;8.70;87.70;102460.97;5034224;28;20052;-45
2022/02/08 04:51:36;;;;;;;28.58;3.25;;;;;;;8.70;87.75;102469.03;5023886;28;20318;-45
2022/02/08 04:56:58;;;;;;;20.17;2.80;;;;;;;8.74;87.10;102467.75;5017595;28;20532;-44
2022/02/08 04:59:38;;;;;;;24.73;2.85;;;;;;;8.75;86.76;102464.97;5015742;28;20046;-45
2022/02/08 05:34:40;;;;;;;18.42;2.35;;;;;;;8.83;85.01;102437.47;5014191;28;20060;-47
2022/02/08 05:44:47;;;;;;;;;;;;;;;8.88;84.83;102454.03;5028794;28;20056;-45
2022/02/08 05:47:12;;;;;;;25.27;2.42;;;;;;;8.87;85.13;102446.94;5030253;28;19917;-47
2022/02/08 05:49:42;;;;;;;22.30;3.72;;;;;;;8.88;85.01;102451.34;5027352;28;20026;-44
2022/02/08 05:54:36;;;;;;;26.88;2.97;;;;;;;8.89;84.59;102438.75;5015884;28;20117;-45
2022/02/08 05:57:02;;;;;;;25.42;2.90;;;;;;;8.93;84.38;102440.22;5022771;28;20172;-45
2022/02/08 05:59:27;;;;;;;21.52;2.65;;;;;;;8.95;83.83;102436.41;5022199;28;20036;-46
2022/02/08 06:01:52;;;;;;;20.83;3.83;;;;;;;8.94;84.11;102442.75;5026064;28;20030;-45
2022/02/08 06:04:18;;;;;;;17.73;2.53;;;;;;;8.96;83.51;102435.41;5018121;28;20030;-44
2022/02/08 06:06:43;;;;;;;23.40;3.38;;;;;;;8.99;83.10;102432.47;5018541;28;20038;-48
2022/02/08 06:09:09;;;;;;;21.00;3.20;;;;;;;9.01;82.96;102432.34;5029815;28;20036;-46
2022/02/08 06:11:38;;;;;;;22.60;2.90;;;;;;;9.01;83.06;102443.94;5032447;28;20219;-45
2022/02/08 06:14:04;;;;;;;19.50;2.83;;;;;;;8.99;83.11;102435.16;5031147;28;20493;-45
2022/02/08 06:16:30;;;;;;;30.10;4.13;;;;;;;9.00;82.75;102447.63;5017723;28;20081;-44
2022/02/08 06:18:56;;;;;;;20.70;2.60;;;;;;;9.00;82.69;102442.25;5023258;28;20133;-47
2022/02/08 06:21:22;;;;;;;17.35;2.70;;;;;;;8.99;83.19;102445.91;5025968;28;20116;-44
2022/02/08 06:23:47;;;;;;;24.35;3.05;;;;;;;8.97;83.18;102453.22;5028083;28;20180;-44
2022/02/08 06:26:14;;;;;;;16.58;2.55;;;;;;;8.99;83.21;102450.41;5026305;28;20396;-47
2022/02/08 06:28:39;;;;;;;20.00;2.63;;;;;;;9.00;82.97;102444.94;5028401;28;20095;-45
2022/02/08 06:31:05;;;;;;;20.27;2.30;;;;;;;8.99;82.78;102462.00;5025681;28;20473;-46
2022/02/08 06:33:30;;;;;;;18.77;2.80;;;;;;;9.00;82.66;102458.34;5028826;28;20148;-46
2022/02/08 06:35:55;;;;;;;15.80;2.50;;;;;;;8.98;82.61;102452.25;5025993;28;20401;-44
2022/02/08 06:38:21;;;;;;;20.50;2.83;;;;;;;9.01;82.69;102449.31;5026601;28;20037;-44
2022/02/08 06:40:50;;;;;;;17.92;2.50;;;;;;;9.01;82.67;102451.16;5025481;28;20057;-44
2022/02/08 06:43:16;;;;;;;18.00;2.42;;;;;;;9.02;82.33;102450.16;5024717;28;20179;-45
2022/02/08 06:45:41;;;;;;;18.80;2.55;;;;;;;9.02;82.40;102456.38;5024869;28;20030;-44
2022/02/08 06:48:08;;;;;;;12.80;2.10;;;;;;;9.03;82.47;102454.56;5028334;28;20477;-44
2022/02/08 06:50:34;;;;;;;17.30;2.28;;;;;;;9.03;82.04;102462.63;5024015;28;20048;-44
2022/02/08 06:52:59;;;;;;;23.30;2.72;;;;;;;9.04;82.18;102452.72;5028397;28;20412;-46
2022/02/08 06:55:26;;;;;;;19.48;2.72;;;;;;;9.05;82.02;102465.16;5028579;28;20026;-45
2022/02/08 06:57:59;;;;;;;24.45;2.72;;;;;;;9.05;81.86;102463.31;5022021;28;20115;-46
2022/02/08 07:00:32;;;;;;;20.58;2.38;;;;;;;9.07;81.12;102468.56;5029247;28;20041;-44
2022/02/08 07:02:59;;;;;;;17.20;3.38;;;;;;;9.06;81.46;102472.22;5025320;28;20085;-43
2022/02/08 07:05:24;;;;;;;18.75;3.22;;;;;;;9.04;81.58;102469.69;5026684;28;20021;-44
2022/02/08 07:07:49;;;;;;;15.68;2.20;;;;;;;9.04;81.69;102471.50;5026388;28;20380;-44
2022/02/08 07:10:15;;;;;;;16.60;2.40;;;;;;;9.00;81.35;102469.09;5030053;28;20022;-46
2022/02/08 07:12:40;;;;;;;19.70;3.03;;;;;;;8.97;81.62;102471.19;5029225;28;20057;-46
2022/02/08 07:15:11;;;;;;;22.58;2.10;;;;;;;8.94;81.66;102479.50;5020502;28;20484;-44
2022/02/08 07:17:37;;;;;;;24.67;2.63;;;;;;;8.90;82.17;102488.78;5030196;28;20122;-44
2022/02/08 07:20:03;;;;;;;24.73;2.58;;;;;;;8.88;82.31;102491.63;5026681;28;20069;-44
2022/02/08 07:22:29;;;;;;;20.60;2.45;;;;;;;8.87;82.28;102489.06;5028632;28;20029;-45
2022/02/08 07:24:55;;;;;;;18.95;2.20;;;;;;;8.84;82.25;102500.91;5033154;28;20428;-43
2022/02/08 07:27:21;;;;;;;26.33;2.78;;;;;;;8.85;82.34;102497.25;5032758;28;20025;-45
2022/02/08 07:29:51;;;;;;;15.65;2.25;;;;;;;8.84;82.09;102500.06;5033635;28;20092;-44
2022/02/08 07:32:17;;;;;;;14.30;1.90;;;;;;;8.82;82.25;102497.53;5025699;28;20042;-43
2022/02/08 07:34:47;;;;;;;23.80;2.42;;;;;;;8.86;82.29;102514.22;5031024;28;20044;-46
2022/02/08 07:37:20;;;;;;;12.13;1.77;;;;;;;8.86;82.34;102509.69;5025107;28;20033;-44
2022/02/08 07:39:49;;;;;;;19.05;2.70;;;;;;;8.87;82.94;102505.16;5033688;28;20022;-46
2022/02/08 07:42:14;;;;;;;21.05;2.08;;;;;;;8.88;83.00;102505.03;5026561;28;20108;-43
2022/02/08 07:44:40;;;;;;;21.35;3.03;;;;;;;8.91;82.61;102520.88;5031268;28;20037;-44
2022/02/08 07:47:05;;;;;;;16.75;1.73;;;;;;;8.94;82.44;102512.56;5033542;28;20037;-44
2022/02/08 07:49:32;;;;;;;20.30;2.40;;;;;;;8.95;82.78;102514.28;5032847;28;20053;-42
2022/02/08 07:51:58;;;;;;;24.35;2.67;;;;;;;9.00;82.60;102516.56;5034342;28;20071;-43
2022/02/08 07:54:23;;;;;;;21.52;2.72;;;;;;;9.04;82.16;102520.69;5031514;28;20033;-43
2022/02/08 07:56:49;;;;;;;20.38;3.13;;;;;;;9.04;82.29;102506.44;5029839;28;20065;-44
2022/02/08 07:59:15;;;;;;;21.90;2.45;;;;;;;9.06;82.44;102501.75;5026169;28;20049;-44
2022/02/08 08:01:40;;;;;;;15.02;1.98;;;;;;;9.05;82.84;102518.88;5032508;28;20026;-43
2022/02/08 08:04:06;;;;;;;21.67;2.70;;;;;;;9.06;82.84;102504.44;5029629;28;20121;-42
2022/02/08 08:06:31;;;;;;;18.88;2.13;;;;;;;9.06;83.34;102502.63;5031566;28;20021;-44
2022/02/08 08:08:56;;;;;;;22.85;2.45;;;;;;;9.04;83.08;102511.81;5028275;28;20033;-43
2022/02/08 08:11:22;;;;;;;18.80;2.60;;;;;;;9.04;82.57;102503.75;5032989;28;20029;-43
2022/02/08 08:14:03;;;;;;;20.20;2.08;;;;;;;9.06;82.68;102515.19;5031642;28;20042;-42
2022/02/08 08:19:01;;;;;;;23.88;3.58;;;;;;;9.13;82.73;102527.13;5030322;28;20400;-43
2022/02/08 08:21:27;;;;;;;26.48;2.80;;;;;;;9.19;82.54;102518.56;5032808;28;20026;-43
2022/02/08 08:23:52;;;;;;;17.63;2.30;;;;;;;9.19;82.12;102518.56;5032588;28;20040;-42
2022/02/08 08:26:18;;;;;;;18.52;2.53;;;;;;;9.17;82.18;102515.97;5029773;28;20380;-43
2022/02/08 08:28:43;;;;;;;19.00;2.53;;;;;;;9.15;82.09;102519.78;5031337;28;20085;-43
2022/02/08 08:31:09;;;;;;;27.52;2.75;;;;;;;9.13;82.09;102511.00;5029676;28;20037;-43
2022/02/08 08:33:34;;;;;;;15.02;2.08;;;;;;;9.10;82.31;102522.00;5027855;28;20048;-43
2022/02/08 08:36:00;;;;;;;19.75;2.40;;;;;;;9.42;81.95;102521.91;5031314;28;20044;-43
2022/02/08 08:38:27;;;;;;;27.13;3.53;;;;;;;9.85;79.29;102524.38;5031504;28;20497;-42
2022/02/08 08:41:21;;;;;;;19.08;2.45;;;;;;;10.23;78.04;102522.78;5021329;28;20316;-43
2022/02/08 08:44:06;;;;;;;19.30;2.42;;;;;;;10.54;76.41;102526.28;5030181;28;20056;-45
2022/02/08 08:51:47;;;;;;;21.83;2.55;;;;;;;11.30;73.63;102532.75;5017723;28;20038;-44
2022/02/08 08:54:13;;;;;;;23.38;3.88;;;;;;;11.19;73.08;102553.47;5014721;28;20033;-44
2022/02/08 08:56:40;;;;;;;20.63;3.03;;;;;;;11.48;72.49;102539.09;5032580;28;20053;-44
2022/02/08 08:59:08;;;;;;;34.88;3.55;;;;;;;11.30;73.18;102544.38;5024009;28;20053;-43
2022/02/08 09:01:33;;;;;;;23.08;2.42;;;;;;;11.29;72.63;102536.44;5029356;28;20029;-43
2022/02/08 09:04:00;;;;;;;37.47;3.80;;;;;;;11.62;72.35;102538.59;5021824;28;20052;-44
2022/02/08 09:06:25;;;;;;;17.70;2.20;;;;;;;11.33;72.24;102532.47;5025464;28;20036;-43
2022/02/08 09:08:51;;;;;;;25.67;3.20;;;;;;;11.28;72.02;102523.97;5029514;28;20029;-42
2022/02/08 09:11:32;;;;;;;19.00;2.17;;;;;;;11.64;71.54;102541.16;5023202;28;20473;-43
2022/02/08 09:14:11;;;;;;;20.42;2.28;;;;;;;11.94;69.75;102547.31;5021743;28;20050;-43
2022/02/08 09:16:47;;;;;;;21.20;2.70;;;;;;;12.39;68.24;102550.03;5023784;28;20053;-43
2022/02/08 09:30:15;;;;;;;16.20;2.53;;;;;;;12.23;68.36;102556.09;5032334;28;20060;-44
2022/02/08 09:32:47;;;;;;;23.88;2.70;;;;;;;12.09;68.50;102562.03;5032807;28;20033;-43
2022/02/08 09:35:14;;;;;;;20.00;2.33;;;;;;;12.35;67.65;102551.38;5014380;28;20482;-43
2022/02/08 09:37:41;;;;;;;21.05;2.42;;;;;;;12.12;68.32;102555.47;5028743;28;20049;-44
2022/02/08 09:40:07;;;;;;;16.20;2.38;;;;;;;11.63;69.60;102550.25;5015519;28;20092;-44
2022/02/08 09:42:33;;;;;;;18.50;2.40;;;;;;;11.52;70.46;102556.66;5017877;28;20536;-44
2022/02/08 09:44:59;;;;;;;20.38;3.08;;;;;;;11.28;70.76;102535.59;5016736;28;20143;-41
2022/02/08 09:48:11;;;;;;;24.27;3.13;;;;;;;11.16;71.34;102545.69;5022804;28;20029;-45
2022/02/08 09:50:22;;;;;;;27.10;2.70;;;;;;;10.89;72.43;102545.56;5015549;28;20034;-42
2022/02/08 09:52:52;;;;;;;18.45;2.20;;;;;;;10.97;72.41;102543.00;5027802;28;20032;-43
2022/02/08 09:55:22;;;;;;;20.58;2.60;;;;;;;10.93;72.67;102553.22;5032535;28;20029;-43
2022/02/08 09:57:48;;;;;;;35.30;3.15;;;;;;;10.88;72.63;102554.63;5030542;28;20515;-43
2022/02/08 10:00:15;;;;;;;28.52;3.30;;;;;;;10.74;72.86;102546.00;5012303;28;20030;-44
2022/02/08 10:02:40;;;;;;;20.40;2.80;;;;;;;10.76;73.44;102551.22;5015274;28;20172;-44
2022/02/08 10:05:08;;;;;;;21.05;2.35;;;;;;;10.71;73.16;102561.56;5022465;28;20065;-44
2022/02/08 10:07:34;;;;;;;17.50;1.85;;;;;;;10.67;73.29;102544.84;5001762;28;20069;-46
2022/02/08 10:10:02;;;;;;;19.80;2.20;;;;;;;10.63;73.68;102551.50;5021467;28;20033;-44
2022/02/08 10:12:47;;;;;;;19.90;2.10;;;;;;;10.55;73.23;102552.19;5014373;28;20044;-44
2022/02/08 10:21:38;;;;;;;15.02;2.22;;;;;;;10.57;73.13;102552.06;5030007;28;20539;-44
2022/02/08 10:23:25;;;;;;;25.17;2.22;;;;;;;10.51;73.23;102558.00;5014916;28;20478;-43
2022/02/08 10:26:00;;;;;;;20.80;2.38;;;;;;;10.62;73.59;102560.56;5030257;28;20031;-44
2022/02/08 10:28:50;;;;;;;18.80;3.25;;;;;;;10.57;72.69;102541.28;5018098;28;20065;-44
2022/02/08 10:39:20;;;;;;;17.35;2.47;;;;;;;10.79;72.22;102547.41;5026456;28;20044;-45
2022/02/08 10:41:47;;;;;;;16.90;3.40;;;;;;;10.89;72.02;102553.63;5018854;28;20066;-46
2022/02/08 10:44:12;;;;;;;23.80;2.33;;;;;;;10.88;71.94;102554.63;5014569;28;20046;-45
2022/02/08 10:46:38;;;;;;;20.90;2.53;;;;;;;10.83;71.92;102556.91;5012600;28;20144;-46
2022/02/08 10:49:04;;;;;;;15.90;2.80;;;;;;;10.96;72.35;102552.09;5018767;28;20088;-45
2022/02/08 10:51:34;;;;;;;18.83;2.22;;;;;;;10.84;72.02;102543.28;5022751;28;20045;-44
2022/02/08 10:54:06;;;;;;;18.35;2.33;;;;;;;10.95;71.67;102543.16;5024345;28;20038;-43
2022/02/08 10:56:34;;;;;;;25.75;2.60;;;;;;;10.92;71.46;102554.19;5025799;28;20497;-43
2022/02/08 10:59:15;;;;;;;18.85;2.60;;;;;;;10.90;71.23;102536.47;5026909;28;20053;-44
2022/02/08 11:01:49;;;;;;;21.95;2.67;;;;;;;10.91;71.66;102535.50;5025018;28;20409;-44
2022/02/08 11:04:22;;;;;;;16.05;1.95;;;;;;;10.96;71.51;102546.69;5042023;28;20071;-44
2022/02/08 11:06:55;;;;;;;22.92;2.83;;;;;;;10.92;71.49;102548.81;5047017;28;20028;-44
2022/02/08 11:12:10;;;;;;;22.17;2.20;;;;;;;10.89;71.70;102535.63;5026241;28;20148;-44
2022/02/08 11:18:13;;;;;;;24.45;2.17;;;;;;;10.79;72.71;102539.31;5027573;28;19947;-46
2022/02/08 11:20:44;;;;;;;14.10;2.10;;;;;;;10.79;71.83;102539.31;5028710;28;20043;-46
2022/02/08 11:23:56;;;;;;;18.95;1.92;;;;;;;10.95;71.45;102553.06;5021791;28;20042;-44
2022/02/08 11:26:04;;;;;;;18.77;2.05;;;;;;;11.00;71.19;102545.41;5020621;28;20054;-43
2022/02/08 11:28:47;;;;;;;19.83;2.22;;;;;;;11.04;70.65;102538.75;5015195;28;20497;-46
2022/02/08 11:34:02;;;;;;;16.77;2.00;;;;;;;11.23;69.83;102547.78;5026367;28;20116;-45
2022/02/08 14:01:46;;;;;;;22.52;2.58;;;;;;;12.76;64.67;102522.03;5016672;28;20061;-47
2022/02/08 14:09:41;;;;;;;15.00;2.60;;;;;;;12.78;65.54;102530.84;5021016;28;20038;-47
2022/02/08 14:12:42;;;;;;;24.80;2.88;;;;;;;12.48;65.53;102522.13;5024488;28;20114;-47
2022/02/08 14:15:23;;;;;;;25.92;3.75;;;;;;;12.65;65.17;102527.69;5012854;28;20099;-48
2022/02/08 14:18:09;;;;;;;19.65;3.42;;;;;;;12.69;65.08;102520.97;5015531;28;20180;-46
2022/02/08 14:20:45;;;;;;;27.88;3.08;;;;;;;12.39;65.57;102523.03;5030310;28;20057;-46
2022/02/08 14:25:59;;;;;;;22.42;3.28;;;;;;;12.69;65.57;102534.47;5028840;28;20063;-50
2022/02/08 15:00:34;;;;;;;21.98;2.90;;;;;;;11.82;68.47;102534.00;5023034;28;20083;-47
2022/02/08 15:06:21;;;;;;;22.88;3.40;;;;;;;11.50;70.37;102531.69;5044402;28;20441;-45
2022/02/08 15:08:46;;;;;;;31.63;2.80;;;;;;;11.46;70.25;102533.00;5013093;28;20516;-47
2022/02/08 15:11:13;;;;;;;24.90;3.10;;;;;;;11.05;71.66;102535.03;5024218;28;20033;-44
2022/02/08 15:13:44;;;;;;;26.13;2.75;;;;;;;10.93;72.16;102531.66;5013967;28;20022;-45
2022/02/08 15:16:26;;;;;;;20.95;3.05;;;;;;;10.72;73.19;102536.34;5027124;28;20137;-44
2022/02/08 15:18:52;;;;;;;30.17;3.78;;;;;;;10.73;73.16;102546.13;5022211;28;20432;-44
2022/02/08 15:21:23;;;;;;;35.75;3.17;;;;;;;10.55;73.45;102527.13;5025338;28;20029;-43
2022/02/08 15:23:49;;;;;;;23.67;2.58;;;;;;;10.54;73.41;102544.28;5021490;28;20045;-45
2022/02/08 15:26:15;;;;;;;17.05;2.85;;;;;;;10.57;73.55;102537.75;5026804;28;20105;-44
2022/02/08 15:28:41;;;;;;;27.08;2.95;;;;;;;10.59;73.73;102539.31;5026141;28;20099;-45
2022/02/08 15:31:06;;;;;;;26.33;2.50;;;;;;;10.50;73.51;102554.44;5024557;28;20476;-44
2022/02/08 15:33:32;;;;;;;24.60;3.22;;;;;;;10.58;73.41;102532.22;5018421;28;20026;-43
2022/02/08 15:35:57;;;;;;;21.92;3.35;;;;;;;10.64;73.46;102525.44;5020823;28;20025;-45
2022/02/08 15:38:28;;;;;;;26.30;2.83;;;;;;;10.73;73.32;102524.56;5033732;28;20032;-44
2022/02/08 15:40:54;;;;;;;26.42;2.67;;;;;;;10.96;72.53;102531.38;5020457;28;20034;-42
2022/02/08 15:43:19;;;;;;;17.92;2.13;;;;;;;10.73;72.48;102530.81;5023867;28;20057;-44
2022/02/08 15:48:44;;;;;;;30.25;3.15;;;;;;;10.41;73.61;102522.16;5031181;28;20111;-44
2022/02/08 16:07:26;;;;;;;18.35;2.53;;;;;;;9.84;75.66;102528.03;5013797;28;20049;-45
2022/02/08 16:18:06;;;;;;;18.70;2.42;;;;;;;9.74;76.31;102546.00;5018416;28;20061;-44
2022/02/08 16:20:52;;;;;;;23.73;2.88;;;;;;;9.73;76.35;102546.97;5015725;28;20113;-46
2022/02/08 16:51:27;;;;;;;21.15;2.25;;;;;;;9.47;77.76;102561.84;5024573;28;20045;-45
2022/02/08 16:52:52;;;;;;;18.00;2.30;;;;;;;9.45;77.90;102570.91;5036451;28;20045;-45
2022/02/08 17:00:30;;;;;;;33.15;3.20;;;;;;;9.49;78.51;102570.63;5017308;28;20037;-46
2022/02/08 17:03:01;;;;;;;18.77;2.72;;;;;;;9.51;78.24;102565.97;5012753;28;20033;-46
2022/02/08 17:05:26;;;;;;;17.90;2.53;;;;;;;9.52;78.72;102576.56;5012062;28;20419;-45
2022/02/08 17:07:52;;;;;;;27.40;3.28;;;;;;;9.49;78.68;102574.16;5026167;28;20113;-43
2022/02/08 17:10:32;;;;;;;18.27;2.33;;;;;;;9.46;78.73;102566.38;5029688;28;20424;-45
2022/02/08 17:16:02;;;;;;;23.75;3.00;;;;;;;9.48;78.93;102560.84;5012444;28;20066;-45
2022/02/08 17:18:59;;;;;;;16.63;2.42;;;;;;;9.45;78.65;102553.91;5019063;28;20044;-44
2022/02/08 17:45:51;;;;;;;20.27;2.45;;;;;;;9.43;78.80;102553.19;5025351;28;20089;-43
2022/02/08 17:48:16;;;;;;;20.27;3.40;;;;;;;9.42;78.55;102555.00;5027981;28;20033;-44
2022/02/08 17:50:41;;;;;;;16.77;3.28;;;;;;;9.43;78.92;102550.50;5010041;28;20087;-45
2022/02/08 17:53:07;;;;;;;13.43;2.50;;;;;;;9.41;78.73;102547.09;5009875;28;20153;-44
2022/02/08 17:55:32;;;;;;;23.67;2.92;;;;;;;9.39;78.39;102549.06;5023473;28;20041;-44
2022/02/08 17:57:58;;;;;;;15.98;2.95;;;;;;;9.38;78.91;102550.06;5027077;28;20037;-44
2022/02/08 18:00:23;;;;;;;22.73;3.47;;;;;;;9.39;78.55;102546.38;5009973;28;20037;-44
2022/02/08 18:02:49;;;;;;;14.80;2.90;;;;;;;9.37;78.28;102538.47;5020254;28;20038;-43
2022/02/08 18:05:16;;;;;;;14.93;2.85;;;;;;;9.36;78.88;102534.06;5028831;28;20021;-45
2022/02/08 18:07:42;;;;;;;13.00;2.35;;;;;;;9.36;78.54;102534.06;5029056;28;20117;-44
2022/02/08 18:10:09;;;;;;;27.60;3.58;;;;;;;9.36;78.75;102534.06;5027574;28;20033;-45
2022/02/08 18:12:38;;;;;;;17.80;2.35;;;;;;;9.37;78.53;102541.16;5014407;28;20033;-46
2022/02/08 18:15:09;;;;;;;23.42;2.38;;;;;;;9.40;78.82;102548.06;5027133;28;20072;-45
2022/02/08 18:17:39;;;;;;;17.42;3.00;;;;;;;9.39;78.77;102549.91;5029403;28;20057;-45
2022/02/08 19:07:32;;;;;;;24.05;3.75;;;;;;;9.31;80.61;102567.69;5032209;28;20500;-45
2022/02/08 19:13:06;;;;;;;14.75;2.63;;;;;;;9.27;81.03;102567.09;5029108;28;20035;-44
2022/02/08 19:15:48;;;;;;;13.70;3.63;;;;;;;9.27;81.06;102571.59;5029036;28;20041;-44
2022/02/08 19:20:42;;;;;;;18.63;3.35;;;;;;;9.30;81.10;102566.84;5013076;28;20044;-45
2022/02/08 19:23:08;;;;;;;25.60;3.03;;;;;;;9.34;81.20;102575.47;5017019;28;20033;-45
2022/02/08 19:25:33;;;;;;;15.70;3.30;;;;;;;9.27;81.52;102582.34;5030239;28;20155;-44
2022/02/08 19:28:01;;;;;;;33.90;4.72;;;;;;;9.23;81.72;102571.88;5030612;28;20069;-45
2022/02/08 19:30:26;;;;;;;29.88;5.32;;;;;;;9.21;81.85;102559.53;5013312;28;20307;-46
2022/02/08 19:32:52;;;;;;;21.58;3.17;;;;;;;9.21;82.36;102554.16;5014675;28;20032;-45
2022/02/08 19:35:17;;;;;;;24.88;3.28;;;;;;;9.18;82.45;102554.44;5019150;28;20132;-45
2022/02/08 19:37:45;;;;;;;32.35;3.95;;;;;;;9.16;82.73;102553.72;5032319;28;20089;-44
2022/02/08 19:40:11;;;;;;;27.38;3.60;;;;;;;9.13;82.83;102562.03;5027921;28;20048;-45